createdAt,value
2023-05-14T00:01:05.399Z,8.46
2023-05-14T00:03:33.985Z,8.42
2023-05-14T00:06:03.187Z,8.36
2023-05-14T00:08:31.516Z,8.30
2023-05-14T00:11:00.241Z,8.26
2023-05-14T00:13:28.710Z,8.24
2023-05-14T00:15:57.249Z,8.20
2023-05-14T00:18:25.958Z,8.15
2023-05-14T00:20:55.095Z,8.12
2023-05-14T00:23:23.941Z,8.09
2023-05-14T00:25:52.323Z,8.06
2023-05-14T00:28:22.173Z,8.02
2023-05-14T00:30:51.074Z,8.01
2023-05-14T00:33:19.484Z,8.01
2023-05-14T00:35:47.845Z,7.99
2023-05-14T00:38:19.705Z,7.94
2023-05-14T00:40:51.959Z,7.86
2023-05-14T00:43:21.864Z,7.79
2023-05-14T00:45:52.013Z,7.74
2023-05-14T00:48:21.616Z,7.71
2023-05-14T00:50:51.308Z,7.68
2023-05-14T00:53:20.904Z,7.66
2023-05-14T00:55:50.549Z,7.64
2023-05-14T00:58:19.970Z,7.64
2023-05-14T01:00:48.486Z,7.61
2023-05-14T01:03:16.943Z,7.54
2023-05-14T01:06:10.207Z,7.50
2023-05-14T01:08:41.376Z,7.46
2023-05-14T01:11:22.697Z,7.41
2023-05-14T01:14:03.059Z,7.35
2023-05-14T01:16:34.285Z,7.30
2023-05-14T01:19:06.320Z,7.29
2023-05-14T01:21:38.674Z,7.29
2023-05-14T01:24:08.506Z,7.28
2023-05-14T01:26:37.674Z,7.27
2023-05-14T01:29:16.718Z,7.29
2023-05-14T01:31:47.599Z,7.26
2023-05-14T01:34:16.525Z,7.22
2023-05-14T01:36:45.782Z,7.18
2023-05-14T01:39:15.548Z,7.13
2023-05-14T01:41:45.722Z,7.08
2023-05-14T01:44:14.955Z,7.05
2023-05-14T01:46:43.208Z,7.02
2023-05-14T01:49:11.385Z,6.97
2023-05-14T01:51:39.866Z,6.92
2023-05-14T01:54:08.689Z,6.85
2023-05-14T01:56:37.071Z,6.83
2023-05-14T01:59:05.526Z,6.83
2023-05-14T02:01:34.210Z,6.83
2023-05-14T02:04:02.573Z,6.80
2023-05-14T02:06:32.423Z,6.75
2023-05-14T02:09:00.619Z,6.70
2023-05-14T02:11:28.875Z,6.66
2023-05-14T02:13:57.246Z,6.60
2023-05-14T02:16:26.248Z,6.53
2023-05-14T02:18:55.123Z,6.36
2023-05-14T02:21:24.502Z,6.24
2023-05-14T02:23:52.847Z,6.15
2023-05-14T02:26:21.663Z,6.11
2023-05-14T02:28:49.997Z,6.04
2023-05-14T02:31:19.643Z,6.03
2023-05-14T02:33:48.214Z,6.03
2023-05-14T02:36:16.786Z,6.03
2023-05-14T02:38:45.521Z,6.01
2023-05-14T02:41:13.808Z,6.02
2023-05-14T02:43:42.006Z,6.05
2023-05-14T02:46:12.356Z,6.10
2023-05-14T02:48:41.293Z,6.13
2023-05-14T02:51:09.687Z,6.14
2023-05-14T02:53:38.031Z,6.14
2023-05-14T02:56:06.671Z,6.13
2023-05-14T02:58:34.970Z,6.12
2023-05-14T03:01:03.617Z,6.13
2023-05-14T03:03:33.236Z,6.17
2023-05-14T03:06:02.138Z,6.23
2023-05-14T03:08:30.520Z,6.28
2023-05-14T03:10:58.899Z,6.33
2023-05-14T03:13:27.196Z,6.37
2023-05-14T03:15:55.925Z,6.39
2023-05-14T03:18:24.285Z,6.45
2023-05-14T03:20:52.470Z,6.53
2023-05-14T03:23:21.115Z,6.59
2023-05-14T03:25:49.498Z,6.65
2023-05-14T03:28:17.832Z,6.71
2023-05-14T03:30:46.264Z,6.76
2023-05-14T03:33:14.698Z,6.81
2023-05-14T03:35:42.942Z,6.85
2023-05-14T03:38:11.244Z,6.87
2023-05-14T03:40:39.639Z,6.89
2023-05-14T03:43:07.980Z,6.91
2023-05-14T03:45:36.313Z,6.95
2023-05-14T03:48:05.074Z,6.99
2023-05-14T03:50:34.325Z,7.04
2023-05-14T03:53:02.525Z,7.10
2023-05-14T03:55:31.420Z,7.15
2023-05-14T03:57:59.852Z,7.17
2023-05-14T04:00:29.303Z,7.21
2023-05-14T04:02:57.749Z,7.27
2023-05-14T04:05:26.274Z,7.33
2023-05-14T04:07:54.684Z,7.37
2023-05-14T04:10:23.395Z,7.43
2023-05-14T04:12:51.998Z,7.48
2023-05-14T04:15:20.480Z,7.51
2023-05-14T04:17:48.938Z,7.53
2023-05-14T04:20:17.493Z,7.53
2023-05-14T04:22:45.780Z,7.56
2023-05-14T04:25:14.200Z,7.59
2023-05-14T04:27:42.475Z,7.70
2023-05-14T04:30:11.374Z,7.87
2023-05-14T04:36:18.074Z,8.01
2023-05-14T04:38:46.550Z,8.01
2023-05-14T04:41:15.058Z,8.03
2023-05-14T04:43:43.498Z,8.03
2023-05-14T04:46:11.910Z,8.04
2023-05-14T04:48:40.400Z,8.11
2023-05-14T04:51:08.822Z,8.19
2023-05-14T04:53:37.295Z,8.29
2023-05-14T04:56:05.746Z,8.39
2023-05-14T04:58:35.429Z,8.44
2023-05-14T05:01:06.342Z,8.49
2023-05-14T05:03:34.949Z,8.56
2023-05-14T05:06:03.719Z,8.63
2023-05-14T05:08:31.973Z,8.69
2023-05-14T05:11:00.507Z,8.82
2023-05-14T05:13:28.784Z,8.97
2023-05-14T05:15:57.121Z,9.09
2023-05-14T05:18:25.655Z,9.22
2023-05-14T05:20:53.968Z,9.34
2023-05-14T05:23:22.221Z,9.46
2023-05-14T05:25:53.829Z,9.58
2023-05-14T05:28:23.039Z,9.70
2023-05-14T05:30:51.456Z,9.81
2023-05-14T05:33:19.943Z,9.92
2023-05-14T05:35:50.217Z,10.01
2023-05-14T05:38:18.515Z,10.12
2023-05-14T05:40:46.970Z,10.24
2023-05-14T05:43:15.669Z,10.37
2023-05-14T05:45:44.288Z,10.49
2023-05-14T05:48:12.814Z,10.62
2023-05-14T05:50:41.144Z,10.77
2023-05-14T05:53:09.405Z,10.89
2023-05-14T05:55:37.832Z,11.03
2023-05-14T05:58:06.023Z,11.19
2023-05-14T06:00:34.588Z,11.30
2023-05-14T06:03:02.817Z,11.44
2023-05-14T06:05:30.955Z,11.57
2023-05-14T06:07:59.107Z,11.68
2023-05-14T06:10:27.394Z,11.79
2023-05-14T06:12:55.914Z,11.92
2023-05-14T06:15:24.278Z,12.03
2023-05-14T06:17:52.656Z,12.13
2023-05-14T06:20:21.322Z,12.24
2023-05-14T06:22:49.655Z,12.34
2023-05-14T06:25:18.109Z,12.44
2023-05-14T06:27:46.429Z,12.54
2023-05-14T06:30:15.404Z,12.65
2023-05-14T06:32:43.816Z,12.77
2023-05-14T06:35:12.201Z,12.89
2023-05-14T06:37:40.532Z,13.01
2023-05-14T06:40:09.299Z,13.14
2023-05-14T06:42:38.757Z,13.24
2023-05-14T06:45:07.878Z,13.35
2023-05-14T06:47:36.274Z,13.46
2023-05-14T06:50:04.913Z,13.57
2023-05-14T06:52:33.730Z,13.67
2023-05-14T06:55:02.098Z,13.76
2023-05-14T06:57:30.534Z,13.87
2023-05-14T06:59:59.279Z,13.95
2023-05-14T07:02:27.843Z,14.05
2023-05-14T07:04:56.332Z,14.18
2023-05-14T07:07:24.738Z,14.28
2023-05-14T07:09:53.079Z,14.39
2023-05-14T07:12:21.352Z,14.52
2023-05-14T07:14:50.341Z,14.64
2023-05-14T07:17:18.715Z,14.74
2023-05-14T07:19:47.472Z,14.83
2023-05-14T07:22:15.895Z,14.97
2023-05-14T07:24:44.212Z,15.08
2023-05-14T07:27:12.594Z,15.21
2023-05-14T07:29:41.064Z,15.32
2023-05-14T07:32:09.821Z,15.39
2023-05-14T07:34:38.042Z,15.45
2023-05-14T07:37:06.177Z,15.51
2023-05-14T07:39:34.560Z,15.57
2023-05-14T07:42:02.844Z,15.66
2023-05-14T07:44:31.140Z,15.81
2023-05-14T07:46:59.597Z,15.91
2023-05-14T07:49:28.021Z,16.02
2023-05-14T07:51:56.406Z,16.15
2023-05-14T07:54:24.975Z,16.27
2023-05-14T07:56:53.252Z,16.35
2023-05-14T07:59:21.661Z,16.43
2023-05-14T08:01:49.974Z,16.52
2023-05-14T08:04:18.434Z,16.60
2023-05-14T08:06:46.850Z,16.75
2023-05-14T08:09:15.489Z,16.89
2023-05-14T08:11:44.883Z,17.01
2023-05-14T08:14:13.261Z,17.12
2023-05-14T08:16:41.662Z,17.25
2023-05-14T08:19:10.256Z,17.35
2023-05-14T08:21:38.433Z,17.44
2023-05-14T08:24:06.869Z,17.52
2023-05-14T08:26:35.256Z,17.63
2023-05-14T08:29:03.497Z,17.75
2023-05-14T08:31:31.930Z,17.83
2023-05-14T08:34:00.377Z,17.91
2023-05-14T08:36:28.684Z,17.98
2023-05-14T08:38:56.811Z,18.03
2023-05-14T08:41:26.941Z,18.08
2023-05-14T08:44:01.284Z,18.14
2023-05-14T08:46:32.252Z,18.20
2023-05-14T08:49:09.235Z,18.25
2023-05-14T08:51:38.353Z,18.33
2023-05-14T08:54:06.870Z,18.41
2023-05-14T08:56:36.134Z,18.54
2023-05-14T08:59:05.112Z,18.62
2023-05-14T09:01:33.865Z,18.67
2023-05-14T09:04:07.278Z,18.73
2023-05-14T09:06:40.158Z,18.85
2023-05-14T09:09:08.489Z,18.98
2023-05-14T09:11:47.309Z,19.07
2023-05-14T09:14:16.215Z,19.10
2023-05-14T09:16:46.344Z,19.13
2023-05-14T09:19:19.229Z,19.21
2023-05-14T09:21:49.231Z,19.26
2023-05-14T09:24:21.641Z,19.29
2023-05-14T09:26:55.125Z,19.34
2023-05-14T09:29:27.998Z,19.47
2023-05-14T09:31:57.626Z,19.60
2023-05-14T09:34:31.148Z,19.76
2023-05-14T09:37:02.608Z,19.99
2023-05-14T09:39:31.396Z,20.20
2023-05-14T09:41:59.972Z,20.29
2023-05-14T09:44:28.477Z,20.37
2023-05-14T09:46:56.922Z,20.47
2023-05-14T09:49:25.481Z,20.60
2023-05-14T09:51:53.793Z,20.68
2023-05-14T09:54:22.059Z,20.73
2023-05-14T09:56:50.434Z,20.83
2023-05-14T09:59:18.804Z,20.97
2023-05-14T10:01:47.826Z,21.06
2023-05-14T10:04:16.194Z,21.12
2023-05-14T10:06:51.451Z,21.20
2023-05-14T10:09:23.396Z,21.28
2023-05-14T10:11:54.098Z,21.32
2023-05-14T10:14:41.220Z,21.35
2023-05-14T10:17:18.304Z,21.35
2023-05-14T10:19:54.057Z,21.36
2023-05-14T10:22:31.560Z,21.40
2023-05-14T10:25:00.796Z,21.53
2023-05-14T10:27:29.539Z,21.66
2023-05-14T10:29:58.288Z,21.76
2023-05-14T10:32:26.734Z,21.82
2023-05-14T10:34:55.010Z,21.85
2023-05-14T10:37:26.690Z,21.89
2023-05-14T10:39:59.691Z,21.97
2023-05-14T10:42:33.661Z,22.02
2023-05-14T10:45:10.555Z,22.07
2023-05-14T10:47:48.929Z,22.08
2023-05-14T10:50:18.732Z,22.12
2023-05-14T10:52:47.133Z,22.18
2023-05-14T10:55:17.249Z,22.26
2023-05-14T10:57:46.858Z,22.34
2023-05-14T11:00:15.673Z,22.48
2023-05-14T11:02:45.257Z,22.51
2023-05-14T11:05:17.916Z,22.51
2023-05-14T11:07:48.895Z,22.62
2023-05-14T11:10:26.160Z,22.68
2023-05-14T11:12:54.767Z,22.68
2023-05-14T11:15:26.236Z,22.67
2023-05-14T11:17:54.952Z,22.60
2023-05-14T11:20:23.651Z,22.71
2023-05-14T11:22:52.090Z,22.82
2023-05-14T11:25:21.916Z,22.98
2023-05-14T11:27:50.476Z,23.09
2023-05-14T11:30:20.214Z,23.11
2023-05-14T11:32:49.636Z,23.18
2023-05-14T11:35:18.438Z,23.37
2023-05-14T11:37:52.561Z,23.54
2023-05-14T11:40:21.331Z,23.49
2023-05-14T11:42:52.431Z,23.49
2023-05-14T11:45:29.878Z,23.66
2023-05-14T11:47:58.263Z,23.74
2023-05-14T11:50:26.769Z,23.88
2023-05-14T11:53:00.646Z,24.03
2023-05-14T11:55:30.513Z,24.12
2023-05-14T11:57:58.965Z,24.15
2023-05-14T12:00:27.352Z,24.10
2023-05-14T12:02:55.675Z,24.20
2023-05-14T12:05:23.982Z,24.34
2023-05-14T12:07:52.240Z,24.47
2023-05-14T12:10:20.601Z,24.52
2023-05-14T12:12:49.046Z,24.53
2023-05-14T12:15:17.512Z,24.48
2023-05-14T12:17:52.285Z,24.36
2023-05-14T12:20:20.742Z,24.40
2023-05-14T12:22:49.353Z,24.37
2023-05-14T12:25:17.889Z,24.46
2023-05-14T12:27:47.252Z,24.44
2023-05-14T12:32:47.262Z,24.14
2023-05-14T12:35:15.583Z,23.87
2023-05-14T12:37:43.805Z,23.54
2023-05-14T12:40:12.230Z,23.28
2023-05-14T12:42:40.512Z,23.16
2023-05-14T12:45:09.099Z,23.32
2023-05-14T12:47:37.723Z,23.47
2023-05-14T12:50:06.999Z,23.63
2023-05-14T12:55:07.923Z,23.70
2023-05-14T12:57:36.739Z,23.74
2023-05-14T13:00:13.019Z,23.80
2023-05-14T13:02:43.852Z,23.96
2023-05-14T13:05:12.878Z,24.04
2023-05-14T13:07:41.824Z,24.07
2023-05-14T13:10:12.277Z,24.09
2023-05-14T13:12:40.655Z,24.26
2023-05-14T13:15:09.802Z,24.49
2023-05-14T13:17:38.176Z,24.70
2023-05-14T13:20:07.410Z,24.75
2023-05-14T13:22:35.671Z,24.89
2023-05-14T13:25:04.517Z,25.04
2023-05-14T13:27:33.890Z,25.21
2023-05-14T13:30:02.357Z,25.45
2023-05-14T13:32:31.134Z,25.66
2023-05-14T13:34:59.389Z,25.82
2023-05-14T13:37:28.569Z,25.90
2023-05-14T13:39:58.302Z,25.88
2023-05-14T13:42:27.266Z,25.94
2023-05-14T13:44:56.606Z,26.15
2023-05-14T13:47:26.168Z,26.29
2023-05-14T13:49:55.101Z,26.41
2023-05-14T13:52:23.377Z,26.43
2023-05-14T13:54:51.719Z,26.31
2023-05-14T13:57:21.676Z,26.04
2023-05-14T13:59:50.042Z,25.85
2023-05-14T14:02:18.360Z,25.73
2023-05-14T14:04:49.839Z,25.65
2023-05-14T14:07:18.047Z,25.63
2023-05-14T14:09:46.623Z,25.61
2023-05-14T14:12:17.670Z,25.53
2023-05-14T14:14:46.162Z,25.49
2023-05-14T14:17:14.311Z,25.52
2023-05-14T14:19:44.019Z,25.43
2023-05-14T14:22:17.719Z,25.26
2023-05-14T14:24:45.985Z,25.29
2023-05-14T14:27:14.117Z,25.26
2023-05-14T14:29:42.399Z,25.23
2023-05-14T14:32:10.748Z,24.94
2023-05-14T14:34:39.137Z,24.83
2023-05-14T14:37:07.433Z,24.83
2023-05-14T14:39:35.732Z,24.82
2023-05-14T14:42:04.606Z,24.83
2023-05-14T14:44:33.058Z,24.81
2023-05-14T14:47:03.388Z,24.79
2023-05-14T14:49:32.771Z,24.67
2023-05-14T14:52:01.170Z,24.50
2023-05-14T14:54:29.646Z,24.37
2023-05-14T14:56:57.969Z,24.26
2023-05-14T14:59:26.154Z,24.01
2023-05-14T15:01:54.579Z,23.79
2023-05-14T15:04:23.169Z,23.66
2023-05-14T15:06:53.548Z,23.49
2023-05-14T15:09:21.854Z,23.29
2023-05-14T15:11:50.413Z,23.09
2023-05-14T15:14:18.621Z,22.90
2023-05-14T15:16:48.828Z,22.80
2023-05-14T15:19:20.551Z,22.74
2023-05-14T15:21:49.273Z,22.74
2023-05-14T15:24:17.562Z,22.80
2023-05-14T15:26:46.236Z,22.84
2023-05-14T15:29:14.436Z,22.86
2023-05-14T15:31:43.041Z,22.86
2023-05-14T15:34:11.580Z,22.83
2023-05-14T15:36:40.169Z,22.73
2023-05-14T15:39:10.397Z,22.63
2023-05-14T15:41:38.650Z,22.43
2023-05-14T15:44:07.866Z,22.34
2023-05-14T15:46:38.046Z,22.34
2023-05-14T15:49:06.666Z,22.33
2023-05-14T15:51:35.258Z,22.39
2023-05-14T15:54:06.072Z,22.40
2023-05-14T15:56:34.552Z,22.40
2023-05-14T15:59:03.449Z,22.36
2023-05-14T16:01:32.144Z,22.32
2023-05-14T16:04:00.777Z,22.24
2023-05-14T16:06:28.997Z,22.23
2023-05-14T16:08:57.278Z,22.16
2023-05-14T16:11:25.563Z,22.02
2023-05-14T16:13:53.818Z,21.86
2023-05-14T16:16:23.426Z,21.69
2023-05-14T16:18:51.841Z,21.50
2023-05-14T16:21:20.490Z,21.31
2023-05-14T16:23:48.869Z,21.13
2023-05-14T16:26:17.181Z,20.98
2023-05-14T16:28:45.538Z,20.87
2023-05-14T16:31:15.481Z,20.80
2023-05-14T16:33:43.862Z,20.73
2023-05-14T16:36:12.313Z,20.65
2023-05-14T16:38:48.315Z,20.56
2023-05-14T16:41:29.588Z,20.47
2023-05-14T16:43:57.849Z,20.40
2023-05-14T16:46:28.383Z,20.33
2023-05-14T16:48:56.930Z,20.26
2023-05-14T16:51:25.306Z,20.20
2023-05-14T16:53:55.622Z,20.14
2023-05-14T16:56:24.583Z,20.08
2023-05-14T16:58:53.309Z,19.99
2023-05-14T17:01:21.538Z,19.89
2023-05-14T17:03:49.878Z,19.79
2023-05-14T17:06:17.960Z,19.70
2023-05-14T17:08:46.253Z,19.61
2023-05-14T17:11:14.602Z,19.52
2023-05-14T17:13:59.591Z,19.43
2023-05-14T17:16:27.335Z,19.35
2023-05-14T17:18:57.399Z,19.26
2023-05-14T17:21:25.693Z,19.17
2023-05-14T17:23:53.946Z,19.08
2023-05-14T17:26:24.231Z,18.99
2023-05-14T17:28:52.809Z,18.89
2023-05-14T17:31:22.557Z,18.78
2023-05-14T17:33:50.946Z,18.67
2023-05-14T17:36:19.203Z,18.55
2023-05-14T17:38:47.543Z,18.44
2023-05-14T17:41:17.944Z,18.33
2023-05-14T17:43:46.242Z,18.23
2023-05-14T17:46:14.618Z,18.12
2023-05-14T17:48:43.188Z,18.02
2023-05-14T17:51:11.662Z,17.90
2023-05-14T17:53:39.980Z,17.79
2023-05-14T17:56:08.332Z,17.67
2023-05-14T17:58:38.325Z,17.58
2023-05-14T18:01:06.907Z,17.49
2023-05-14T18:03:35.308Z,17.39
2023-05-14T18:06:03.881Z,17.30
2023-05-14T18:08:34.634Z,17.20
2023-05-14T18:11:03.146Z,17.10
2023-05-14T18:13:31.439Z,17.01
2023-05-14T18:16:01.357Z,16.91
2023-05-14T18:18:29.898Z,16.82
2023-05-14T18:20:58.622Z,16.72
2023-05-14T18:23:27.596Z,16.62
2023-05-14T18:25:57.622Z,16.53
2023-05-14T18:28:26.729Z,16.45
2023-05-14T18:30:55.113Z,16.39
2023-05-14T18:33:23.489Z,16.32
2023-05-14T18:35:51.845Z,16.26
2023-05-14T18:38:20.139Z,16.20
2023-05-14T18:40:49.578Z,16.14
2023-05-14T18:43:19.807Z,16.06
2023-05-14T18:45:48.460Z,15.99
2023-05-14T18:48:16.977Z,15.93
2023-05-14T18:50:45.467Z,15.87
2023-05-14T18:53:13.796Z,15.82
2023-05-14T18:55:42.351Z,15.77
2023-05-14T18:58:10.676Z,15.74
2023-05-14T19:00:39.015Z,15.73
2023-05-14T19:03:08.273Z,15.71
2023-05-14T19:05:36.768Z,15.68
2023-05-14T19:08:06.068Z,15.66
2023-05-14T19:10:35.036Z,15.64
2023-05-14T19:13:03.680Z,15.62
2023-05-14T19:15:32.652Z,15.63
2023-05-14T19:18:01.551Z,15.62
2023-05-14T19:20:29.886Z,15.61
2023-05-14T19:22:58.068Z,15.61
2023-05-14T19:25:26.953Z,15.59
2023-05-14T19:27:57.165Z,15.58
2023-05-14T19:30:25.798Z,15.56
2023-05-14T19:32:54.281Z,15.53
2023-05-14T19:35:23.078Z,15.49
2023-05-14T19:37:51.555Z,15.44
2023-05-14T19:40:19.801Z,15.38
2023-05-14T19:42:48.373Z,15.32
2023-05-14T19:45:17.093Z,15.26
2023-05-14T19:47:45.766Z,15.19
2023-05-14T19:50:14.231Z,15.12
2023-05-14T19:52:42.751Z,15.06
2023-05-14T19:55:11.040Z,15.01
2023-05-14T19:57:50.617Z,14.94
2023-05-14T20:00:26.883Z,14.88
2023-05-14T20:03:01.202Z,14.82
2023-05-14T20:05:34.013Z,14.77
2023-05-14T20:08:09.810Z,14.72
2023-05-14T20:10:41.592Z,14.67
2023-05-14T20:13:09.862Z,14.62
2023-05-14T20:15:39.578Z,14.59
2023-05-14T20:18:08.078Z,14.55
2023-05-14T20:20:36.923Z,14.48
2023-05-14T20:23:05.207Z,14.39
2023-05-14T20:25:33.713Z,14.32
2023-05-14T20:28:02.105Z,14.26
2023-05-14T20:30:30.442Z,14.19
2023-05-14T20:32:59.054Z,14.13
2023-05-14T20:35:27.654Z,14.07
2023-05-14T20:37:56.547Z,14.01
2023-05-14T20:40:25.691Z,13.95
2023-05-14T20:42:53.991Z,13.89
2023-05-14T20:45:22.204Z,13.86
2023-05-14T20:47:50.702Z,13.82
2023-05-14T20:50:19.220Z,13.81
2023-05-14T20:52:47.456Z,13.80
2023-05-14T20:55:15.767Z,13.80
2023-05-14T20:57:44.148Z,13.80
2023-05-14T21:02:41.809Z,13.80
2023-05-14T21:05:10.735Z,13.81
2023-05-14T21:07:39.629Z,13.82
2023-05-14T21:10:10.008Z,13.83
2023-05-14T21:12:38.324Z,13.83
2023-05-14T21:15:07.548Z,13.84
2023-05-14T21:17:35.704Z,13.83
2023-05-14T21:20:04.173Z,13.84
2023-05-14T21:22:32.546Z,13.84
2023-05-14T21:25:00.841Z,13.84
2023-05-14T21:27:29.024Z,13.84
2023-05-14T21:29:57.506Z,13.84
2023-05-14T21:32:26.056Z,13.84
2023-05-14T21:34:54.674Z,13.86
2023-05-14T21:37:23.254Z,13.86
2023-05-14T21:39:51.634Z,13.86
2023-05-14T21:42:21.141Z,13.84
2023-05-14T21:44:49.737Z,13.83
2023-05-14T21:47:18.397Z,13.81
2023-05-14T21:49:46.580Z,13.80
2023-05-14T21:52:14.859Z,13.79
2023-05-14T21:54:43.346Z,13.78
2023-05-14T21:57:11.922Z,13.79
2023-05-14T21:59:40.504Z,13.81
2023-05-14T22:02:08.707Z,13.82
2023-05-14T22:04:36.963Z,13.82
2023-05-14T22:07:05.441Z,13.83
2023-05-14T22:09:38.233Z,13.85
2023-05-14T22:12:07.505Z,13.86
2023-05-14T22:14:36.003Z,13.86
2023-05-14T22:17:05.713Z,13.88
2023-05-14T22:23:11.599Z,13.94
2023-05-14T22:25:39.956Z,13.93
2023-05-14T22:28:08.758Z,13.93
2023-05-14T22:30:39.382Z,13.93
2023-05-14T22:33:17.320Z,13.93
2023-05-14T22:35:45.813Z,13.94
2023-05-14T22:38:14.466Z,13.93
2023-05-14T22:40:42.838Z,13.91
2023-05-14T22:43:11.019Z,13.88
2023-05-14T22:45:39.490Z,13.87
2023-05-14T22:48:08.087Z,13.84
2023-05-14T22:50:37.463Z,13.81
2023-05-14T22:53:05.951Z,13.77
2023-05-14T22:55:34.826Z,13.72
2023-05-14T22:58:03.563Z,13.68
2023-05-14T23:00:31.897Z,13.63
2023-05-14T23:03:00.186Z,13.59
2023-05-14T23:05:28.875Z,13.55
2023-05-14T23:07:57.302Z,13.51
2023-05-14T23:10:25.957Z,13.49
2023-05-14T23:12:54.611Z,13.47
2023-05-14T23:15:25.265Z,13.47
2023-05-14T23:17:53.790Z,13.45
2023-05-14T23:20:22.242Z,13.43
2023-05-14T23:22:50.489Z,13.42
2023-05-14T23:25:18.892Z,13.39
2023-05-14T23:27:48.163Z,13.37
2023-05-14T23:30:16.886Z,13.34
2023-05-14T23:32:45.150Z,13.30
2023-05-14T23:35:14.000Z,13.25
2023-05-14T23:37:49.681Z,13.23
2023-05-14T23:40:18.648Z,13.20
2023-05-14T23:42:47.235Z,13.15
2023-05-14T23:45:15.699Z,13.12
2023-05-14T23:47:44.108Z,13.08
2023-05-14T23:50:12.529Z,13.05
2023-05-14T23:52:40.811Z,13.01
2023-05-14T23:55:09.796Z,12.99
2023-05-14T23:57:38.321Z,12.97
